Time;durP1;ratioP1;P1;durP2;ratioP2;P2;SDS_P1;SDS_P2;PMS_P1;PMS_P2;Temp;Humidity;BMP_temperature;BMP_pressure;BME280_temperature;BME280_humidity;BME280_pressure;Samples;Min_cycle;Max_cycle;Signal;HPM_P1;HPM_P2
2023/10/21 00:02:17;;;;;;;3.05;1.38;;;;;;;19.85;58.31;98265.88;4989805;28;20447;-60
2023/10/21 00:04:43;;;;;;;4.13;1.40;;;;;;;19.86;58.33;98286.00;4989238;28;20031;-64
2023/10/21 00:07:08;;;;;;;3.38;1.30;;;;;;;19.85;58.45;98284.38;4989294;28;20045;-63
2023/10/21 00:09:33;;;;;;;3.67;1.40;;;;;;;19.85;58.37;98286.19;4989375;28;20077;-60
2023/10/21 00:11:59;;;;;;;5.18;1.42;;;;;;;19.84;58.25;98284.56;4989730;28;20033;-64
2023/10/21 00:14:24;;;;;;;2.43;1.13;;;;;;;19.82;58.42;98279.50;4989334;28;20035;-62
2023/10/21 00:16:50;;;;;;;3.40;1.30;;;;;;;19.83;58.22;98285.56;4989378;28;20591;-63
2023/10/21 00:19:15;;;;;;;2.75;1.20;;;;;;;19.82;58.13;98291.88;4989099;28;20682;-62
2023/10/21 00:21:41;;;;;;;2.60;1.30;;;;;;;19.81;57.91;98291.06;4989353;28;20034;-60
2023/10/21 00:24:06;;;;;;;3.25;1.13;;;;;;;19.80;58.09;98300.00;4989122;28;20030;-61
2023/10/21 00:26:47;;;;;;;4.32;1.33;;;;;;;19.79;58.08;98303.66;4988829;28;20054;-64
2023/10/21 00:29:12;;;;;;;2.58;1.20;;;;;;;19.80;58.23;98302.63;4989005;28;20447;-63
2023/10/21 00:31:37;;;;;;;3.92;1.38;;;;;;;19.80;58.08;98313.19;4989157;28;20041;-64
2023/10/21 00:34:03;;;;;;;3.08;1.40;;;;;;;19.80;58.09;98322.97;4988561;28;20034;-62
2023/10/21 00:36:28;;;;;;;3.65;1.30;;;;;;;19.78;58.07;98317.88;4988663;28;20158;-63
2023/10/21 00:38:53;;;;;;;2.55;1.30;;;;;;;19.80;58.01;98320.31;4989085;28;20034;-62
2023/10/21 00:41:19;;;;;;;2.45;1.25;;;;;;;19.78;58.04;98315.25;4989043;28;20139;-62
2023/10/21 00:43:44;;;;;;;2.78;1.20;;;;;;;19.77;58.21;98324.16;4988725;28;20061;-61
2023/10/21 00:46:13;;;;;;;3.13;1.30;;;;;;;19.78;57.89;98333.72;4989040;28;20121;-63
2023/10/21 00:48:39;;;;;;;3.10;1.30;;;;;;;19.78;58.19;98335.56;4988618;28;20045;-62
2023/10/21 00:51:05;;;;;;;4.75;1.30;;;;;;;19.75;57.89;98337.53;4988627;28;20034;-64
2023/10/21 00:53:31;;;;;;;2.63;1.20;;;;;;;19.77;57.99;98339.22;4988918;28;20368;-64
2023/10/21 00:55:57;;;;;;;3.05;1.23;;;;;;;19.75;57.74;98348.13;4988888;28;20046;-63
2023/10/21 00:58:25;;;;;;;3.55;1.30;;;;;;;19.74;58.08;98343.03;4988749;28;20034;-64
2023/10/21 01:00:50;;;;;;;3.05;1.15;;;;;;;19.74;58.07;98353.59;4988614;28;20031;-64
2023/10/21 01:03:16;;;;;;;1.65;0.95;;;;;;;19.74;58.03;98349.16;4988556;28;20501;-62
2023/10/21 01:05:41;;;;;;;3.03;1.40;;;;;;;19.73;57.98;98352.78;4988768;28;20034;-64
2023/10/21 01:08:06;;;;;;;4.07;1.30;;;;;;;19.75;58.04;98360.53;4988422;28;20038;-64
2023/10/21 01:10:31;;;;;;;4.05;1.20;;;;;;;19.74;58.00;98364.16;4988218;28;20874;-64
2023/10/21 01:12:57;;;;;;;3.25;1.20;;;;;;;19.73;57.86;98363.34;4988424;28;20113;-64
2023/10/21 01:15:22;;;;;;;3.80;1.30;;;;;;;19.72;57.86;98360.91;4988243;28;20143;-63
2023/10/21 01:17:50;;;;;;;3.72;1.20;;;;;;;19.72;57.75;98366.19;4986439;28;20030;-63
2023/10/21 01:20:17;;;;;;;2.95;1.60;;;;;;;19.71;57.86;98373.31;4988430;28;20038;-62
2023/10/21 01:22:43;;;;;;;3.83;1.38;;;;;;;19.71;57.87;98369.84;4988451;28;20030;-61
2023/10/21 01:25:08;;;;;;;3.22;1.40;;;;;;;19.69;57.77;98372.69;4987383;28;20414;-64
2023/10/21 01:27:34;;;;;;;3.10;1.30;;;;;;;19.70;57.83;98376.94;4988009;28;20073;-62
2023/10/21 01:29:59;;;;;;;2.73;1.20;;;;;;;19.71;57.88;98380.41;4987813;28;20038;-64
2023/10/21 01:32:25;;;;;;;2.88;1.10;;;;;;;19.70;57.59;98387.53;4988061;28;20292;-61
2023/10/21 01:34:50;;;;;;;3.13;1.15;;;;;;;19.69;57.61;98390.34;4987991;28;20026;-62
2023/10/21 01:37:16;;;;;;;3.15;1.30;;;;;;;19.71;58.01;98396.25;4987327;28;20038;-63
2023/10/21 01:39:41;;;;;;;3.50;1.27;;;;;;;19.70;57.51;98394.66;4987311;28;20037;-64
2023/10/21 01:42:06;;;;;;;5.97;1.25;;;;;;;19.69;57.92;98393.00;4988313;28;20459;-64
2023/10/21 01:44:32;;;;;;;2.10;1.02;;;;;;;19.69;57.75;98393.00;4987599;28;20034;-64
2023/10/21 01:46:57;;;;;;;3.40;1.30;;;;;;;19.69;57.70;98396.47;4987454;28;20045;-62
2023/10/21 01:49:22;;;;;;;3.23;1.20;;;;;;;19.68;57.60;98399.31;4986667;28;20268;-62
2023/10/21 01:51:47;;;;;;;2.80;1.10;;;;;;;19.69;57.69;98403.56;4987955;28;20268;-63
2023/10/21 01:54:13;;;;;;;4.37;1.20;;;;;;;19.68;57.62;98409.88;4987964;28;20264;-61
2023/10/21 01:56:38;;;;;;;2.33;1.02;;;;;;;19.68;57.45;98413.34;4987329;28;20272;-64
2023/10/21 01:59:04;;;;;;;4.35;1.20;;;;;;;19.67;57.70;98406.41;4987469;28;20475;-62
2023/10/21 02:01:29;;;;;;;2.25;1.10;;;;;;;19.67;57.55;98409.06;4987067;28;20146;-64
2023/10/21 02:03:54;;;;;;;3.47;1.33;;;;;;;19.67;57.68;98416.97;4987745;28;20026;-62
2023/10/21 02:06:20;;;;;;;1.92;0.90;;;;;;;19.65;57.62;98411.06;4987376;28;20026;-64
2023/10/21 02:08:45;;;;;;;2.97;1.10;;;;;;;19.65;57.59;98423.47;4987287;28;20087;-63
2023/10/21 02:11:10;;;;;;;3.05;1.20;;;;;;;19.65;57.73;98424.28;4987539;28;20115;-63
2023/10/21 02:13:36;;;;;;;2.33;1.10;;;;;;;19.66;57.72;98430.38;4986948;28;20490;-64
2023/10/21 02:16:01;;;;;;;2.22;1.10;;;;;;;19.65;57.65;98428.75;4987071;28;20341;-64
2023/10/21 02:18:27;;;;;;;2.30;1.10;;;;;;;19.64;57.50;98437.69;4987553;28;20117;-63
2023/10/21 02:20:52;;;;;;;2.65;1.15;;;;;;;19.64;57.69;98443.78;4987356;28;20505;-64
2023/10/21 02:23:17;;;;;;;3.78;1.23;;;;;;;19.63;57.50;98444.81;4987429;28;20037;-64
2023/10/21 02:25:43;;;;;;;3.20;1.48;;;;;;;19.64;57.59;98451.72;4986791;28;20054;-64
2023/10/21 02:28:09;;;;;;;2.97;1.20;;;;;;;19.64;57.55;98451.72;4987217;28;20042;-61
2023/10/21 02:30:35;;;;;;;2.97;1.10;;;;;;;19.63;57.37;98451.91;4986784;28;20343;-61
2023/10/21 02:33:00;;;;;;;2.25;1.08;;;;;;;19.63;57.60;98452.75;4986797;28;20085;-61
2023/10/21 02:35:25;;;;;;;2.55;1.10;;;;;;;19.62;57.58;98455.56;4986939;28;20046;-65
2023/10/21 02:37:51;;;;;;;2.22;1.20;;;;;;;19.62;57.54;98456.38;4987528;28;20038;-61
2023/10/21 02:40:16;;;;;;;2.17;1.10;;;;;;;19.60;57.41;98458.41;4986739;28;20112;-63
2023/10/21 02:42:42;;;;;;;2.28;1.13;;;;;;;19.62;57.08;98456.38;4987228;28;20272;-62
2023/10/21 02:45:08;;;;;;;2.97;1.00;;;;;;;19.60;57.49;98457.56;4986482;28;20042;-63
2023/10/21 02:47:35;;;;;;;1.50;0.90;;;;;;;19.60;57.44;98453.13;4986972;28;20034;-62
2023/10/21 02:50:00;;;;;;;3.03;1.20;;;;;;;19.58;57.73;98461.22;4986696;28;20053;-64
2023/10/21 02:52:25;;;;;;;2.30;1.07;;;;;;;19.59;57.33;98469.97;4987149;28;21726;-64
2023/10/21 02:54:50;;;;;;;2.83;1.13;;;;;;;19.60;57.42;98474.25;4986980;28;20303;-63
2023/10/21 02:57:16;;;;;;;2.45;1.00;;;;;;;19.58;57.77;98471.81;4987161;28;20035;-63
2023/10/21 02:59:41;;;;;;;3.92;1.10;;;;;;;19.60;57.42;98478.69;4988182;28;20038;-60
2023/10/21 03:02:06;;;;;;;2.83;1.15;;;;;;;19.58;57.40;98484.19;4991226;28;20038;-64
2023/10/21 03:04:32;;;;;;;5.20;1.10;;;;;;;19.58;57.11;98486.81;4991230;28;20034;-63
2023/10/21 03:06:57;;;;;;;3.78;1.23;;;;;;;19.58;57.24;98487.66;4990579;28;20291;-64
2023/10/21 03:09:22;;;;;;;6.15;1.13;;;;;;;19.56;57.44;98491.47;4990274;28;20463;-65
2023/10/21 03:11:48;;;;;;;3.97;1.23;;;;;;;19.57;57.39;98493.94;4990734;28;20038;-64
2023/10/21 03:14:13;;;;;;;2.25;1.10;;;;;;;19.55;57.15;98490.69;4990336;28;20278;-64
2023/10/21 03:16:38;;;;;;;3.50;1.00;;;;;;;19.55;57.38;98490.69;4990470;28;20039;-62
2023/10/21 03:19:04;;;;;;;2.42;1.15;;;;;;;19.56;57.16;98497.56;4990450;28;20045;-64
2023/10/21 03:21:29;;;;;;;1.92;0.90;;;;;;;19.56;57.31;98494.13;4990416;28;20117;-65
2023/10/21 03:23:54;;;;;;;2.95;1.25;;;;;;;19.55;57.27;98503.88;4989030;28;20678;-63
2023/10/21 03:26:21;;;;;;;3.40;1.02;;;;;;;19.55;57.13;98501.25;4990287;28;20812;-64
2023/10/21 03:28:46;;;;;;;3.17;1.05;;;;;;;19.54;57.26;98507.53;4989776;28;20038;-64
2023/10/21 03:31:12;;;;;;;3.05;1.20;;;;;;;19.54;57.08;98514.63;4990574;28;20084;-61
2023/10/21 03:33:37;;;;;;;4.85;1.23;;;;;;;19.54;57.17;98518.09;4990501;28;20026;-62
2023/10/21 03:36:04;;;;;;;2.67;1.00;;;;;;;19.54;57.19;98526.03;4990321;28;20395;-64
2023/10/21 03:38:30;;;;;;;2.78;1.00;;;;;;;19.53;57.10;98515.63;4990019;28;20034;-61
2023/10/21 03:40:57;;;;;;;2.20;1.00;;;;;;;19.54;57.25;98530.50;4990140;28;20042;-63
2023/10/21 03:43:23;;;;;;;2.35;1.00;;;;;;;19.53;57.09;98524.38;4989919;28;20494;-61
2023/10/21 03:45:49;;;;;;;4.07;1.02;;;;;;;19.52;57.04;98535.97;4989671;28;20479;-64
2023/10/21 03:48:14;;;;;;;2.83;1.10;;;;;;;19.52;57.09;98537.81;4990074;28;20030;-64
2023/10/21 03:50:39;;;;;;;2.58;1.15;;;;;;;19.51;57.18;98536.97;4989740;28;20034;-62
2023/10/21 03:53:05;;;;;;;3.78;0.93;;;;;;;19.51;57.16;98549.38;4990044;28;20066;-62
2023/10/21 03:55:30;;;;;;;3.67;1.35;;;;;;;19.52;56.84;98548.38;4989570;28;20030;-63
2023/10/21 03:57:55;;;;;;;3.03;1.10;;;;;;;19.52;57.29;98549.19;4989603;28;20540;-62
2023/10/21 04:00:21;;;;;;;2.93;1.03;;;;;;;19.50;57.13;98551.19;4989958;28;20267;-64
2023/10/21 04:02:47;;;;;;;3.08;0.98;;;;;;;19.50;56.89;98559.13;4989580;28;20271;-63
2023/10/21 04:05:12;;;;;;;3.97;1.10;;;;;;;19.51;56.96;98565.22;4989820;28;20061;-64
2023/10/21 04:07:37;;;;;;;2.35;0.93;;;;;;;19.50;57.19;98564.41;4989467;28;20509;-64
2023/10/21 04:10:03;;;;;;;2.20;1.10;;;;;;;19.50;56.99;98566.22;4989541;28;20117;-62
2023/10/21 04:12:29;;;;;;;3.42;1.20;;;;;;;19.50;57.06;98574.13;4989215;28;20074;-62
2023/10/21 04:14:54;;;;;;;2.35;1.00;;;;;;;19.51;56.84;98583.69;4989612;28;20065;-63
2023/10/21 04:17:20;;;;;;;3.58;1.13;;;;;;;19.50;57.05;98590.81;4989832;28;20093;-63
2023/10/21 04:19:45;;;;;;;3.30;0.90;;;;;;;19.50;56.92;98587.34;4989243;28;20041;-61
2023/10/21 04:22:11;;;;;;;2.55;1.00;;;;;;;19.48;57.00;98592.00;4988951;28;20093;-63
2023/10/21 04:24:36;;;;;;;3.20;1.10;;;;;;;19.48;56.95;98592.00;4989271;28;20076;-63
2023/10/21 04:27:02;;;;;;;2.45;1.00;;;;;;;19.49;56.95;98593.66;4988930;28;20517;-63
2023/10/21 04:29:27;;;;;;;2.47;0.90;;;;;;;19.47;56.93;98591.19;4987532;28;20026;-60
2023/10/21 04:31:52;;;;;;;2.00;1.00;;;;;;;19.48;56.83;98602.56;4989296;28;20034;-62
2023/10/21 04:34:17;;;;;;;3.65;1.13;;;;;;;19.47;56.98;98593.84;4989222;28;20306;-62
2023/10/21 04:36:43;;;;;;;2.45;0.90;;;;;;;19.48;56.73;98608.66;4989431;28;20456;-60
2023/10/21 04:39:08;;;;;;;2.50;0.82;;;;;;;19.46;56.92;98610.69;4988662;28;20172;-63
2023/10/21 04:41:34;;;;;;;1.60;0.80;;;;;;;19.47;56.96;98607.03;4989105;28;20060;-62
2023/10/21 04:43:59;;;;;;;3.10;1.17;;;;;;;19.46;56.93;98618.59;4988950;28;20031;-64
2023/10/21 04:46:24;;;;;;;2.17;0.90;;;;;;;19.47;56.99;98625.53;4988932;28;20260;-60
2023/10/21 04:48:51;;;;;;;2.47;1.00;;;;;;;19.47;56.83;98627.34;4988570;28;20030;-63
2023/10/21 04:51:16;;;;;;;3.28;1.00;;;;;;;19.46;56.95;98629.16;4988748;28;21634;-63
2023/10/21 04:53:41;;;;;;;2.15;0.85;;;;;;;19.47;56.88;98629.97;4988897;28;20065;-61
2023/10/21 04:56:07;;;;;;;1.83;0.95;;;;;;;19.46;56.82;98641.56;4988738;28;20129;-64
2023/10/21 04:58:32;;;;;;;3.47;0.90;;;;;;;19.45;56.89;98635.44;4988455;28;20026;-63
2023/10/21 05:00:57;;;;;;;3.42;1.10;;;;;;;19.45;56.83;98639.91;4988761;28;20034;-64
2023/10/21 05:03:23;;;;;;;3.05;0.93;;;;;;;19.43;56.77;98642.75;4987594;28;20080;-60
2023/10/21 05:05:48;;;;;;;2.88;0.95;;;;;;;19.45;56.91;98658.41;4988295;28;20037;-61
2023/10/21 05:08:13;;;;;;;3.67;1.27;;;;;;;19.44;56.75;98657.59;4988345;28;20042;-63
2023/10/21 05:10:38;;;;;;;3.05;0.90;;;;;;;19.44;56.76;98662.88;4988447;28;20268;-63
2023/10/21 05:13:04;;;;;;;1.83;0.80;;;;;;;19.44;56.70;98654.97;4987169;28;20037;-63
2023/10/21 05:15:29;;;;;;;1.73;0.80;;;;;;;19.42;56.74;98653.50;4988543;28;20709;-62
2023/10/21 05:17:54;;;;;;;2.15;0.90;;;;;;;19.42;56.50;98661.44;4988609;28;20479;-62
2023/10/21 05:20:20;;;;;;;4.25;1.10;;;;;;;19.42;56.75;98662.22;4988291;28;20044;-63
2023/10/21 05:22:45;;;;;;;3.30;1.10;;;;;;;19.42;56.59;98661.44;4988300;28;20105;-64
2023/10/21 05:25:11;;;;;;;2.17;0.90;;;;;;;19.41;56.66;98665.91;4987396;28;20030;-63
2023/10/21 05:27:36;;;;;;;2.15;0.80;;;;;;;19.42;56.42;98667.50;4988014;28;20080;-60
2023/10/21 05:30:03;;;;;;;2.90;1.10;;;;;;;19.40;56.63;98680.09;4986911;28;20038;-63
2023/10/21 05:32:28;;;;;;;2.85;0.90;;;;;;;19.40;56.41;98680.91;4988270;28;20027;-59
2023/10/21 05:34:54;;;;;;;4.28;1.10;;;;;;;19.42;56.67;98682.56;4988032;28;20034;-60
2023/10/21 05:37:19;;;;;;;1.88;1.00;;;;;;;19.42;56.51;98688.66;4987406;28;20046;-63
2023/10/21 05:39:44;;;;;;;2.93;0.90;;;;;;;19.42;56.48;98688.66;4987795;28;20472;-63
2023/10/21 05:42:10;;;;;;;2.10;0.93;;;;;;;19.41;56.49;98692.31;4987678;28;20264;-62
2023/10/21 05:44:35;;;;;;;2.42;0.90;;;;;;;19.43;56.50;98694.78;4987712;28;20029;-64
2023/10/21 05:47:00;;;;;;;2.28;0.90;;;;;;;19.42;56.51;98698.41;4987178;28;20542;-61
2023/10/21 05:49:26;;;;;;;2.92;0.90;;;;;;;19.42;56.46;98709.78;4987740;28;20030;-64
2023/10/21 05:51:51;;;;;;;3.30;1.00;;;;;;;19.44;56.62;98707.78;4987759;28;20034;-63
2023/10/21 05:54:16;;;;;;;2.67;1.00;;;;;;;19.43;56.58;98719.34;4987679;28;20057;-60
2023/10/21 05:56:41;;;;;;;2.53;0.90;;;;;;;19.42;56.57;98720.34;4986057;28;20037;-64
2023/10/21 05:59:07;;;;;;;2.22;0.90;;;;;;;19.44;56.58;98718.34;4987633;28;20280;-64
2023/10/21 06:01:32;;;;;;;2.70;1.00;;;;;;;19.43;56.57;98714.06;4987915;28;20034;-64
2023/10/21 06:03:57;;;;;;;1.45;0.70;;;;;;;19.44;56.68;98726.28;4987921;28;20260;-64
2023/10/21 06:06:23;;;;;;;2.58;0.80;;;;;;;19.44;56.61;98730.72;4987571;28;20399;-64
2023/10/21 06:08:49;;;;;;;2.63;0.93;;;;;;;19.46;56.52;98734.03;4987214;28;20125;-62
2023/10/21 06:11:14;;;;;;;1.95;1.00;;;;;;;19.45;56.48;98735.81;4986840;28;20498;-61
2023/10/21 06:13:40;;;;;;;4.57;0.85;;;;;;;19.45;56.86;98749.03;4987531;28;20031;-62
2023/10/21 06:16:06;;;;;;;3.15;0.90;;;;;;;19.45;56.83;98750.88;4987352;28;20407;-63
2023/10/21 06:18:32;;;;;;;3.17;1.02;;;;;;;19.44;56.62;98757.97;4986757;28;20793;-63
2023/10/21 06:20:57;;;;;;;1.65;0.73;;;;;;;19.45;56.82;98766.72;4987159;28;20117;-60
2023/10/21 06:23:23;;;;;;;3.03;0.80;;;;;;;19.44;57.03;98765.91;4987175;28;20050;-62
2023/10/21 06:25:48;;;;;;;1.83;0.80;;;;;;;19.44;56.83;98773.00;4986719;28;20475;-64
2023/10/21 06:28:14;;;;;;;3.22;0.95;;;;;;;19.44;57.12;98784.41;4987056;28;20080;-61
2023/10/21 06:30:42;;;;;;;4.25;1.00;;;;;;;19.45;57.02;98787.84;4987031;28;20041;-62
2023/10/21 06:33:11;;;;;;;2.25;0.90;;;;;;;19.44;57.05;98794.97;4987202;28;20033;-64
2023/10/21 06:35:37;;;;;;;2.60;0.70;;;;;;;19.44;57.31;98792.31;4986473;28;20034;-63
2023/10/21 06:38:04;;;;;;;4.25;1.02;;;;;;;19.43;57.37;98790.66;4987133;28;20036;-63
2023/10/21 06:40:29;;;;;;;2.50;0.90;;;;;;;19.46;57.50;98800.88;4986615;28;20077;-64
2023/10/21 06:42:56;;;;;;;2.03;0.90;;;;;;;19.46;57.62;98806.16;4986904;28;20035;-62
2023/10/21 06:45:21;;;;;;;3.03;0.88;;;;;;;19.46;57.30;98810.63;4987109;28;20034;-63
2023/10/21 06:47:47;;;;;;;3.97;1.00;;;;;;;19.46;57.30;98816.72;4986832;28;20041;-61
2023/10/21 06:50:12;;;;;;;4.73;1.00;;;;;;;19.46;57.45;98823.84;4986935;28;20034;-62
2023/10/21 06:52:37;;;;;;;2.50;1.00;;;;;;;19.46;57.64;98827.28;4986872;28;20292;-63
2023/10/21 06:55:03;;;;;;;3.47;1.20;;;;;;;19.46;57.59;98829.13;4986641;28;20068;-62
2023/10/21 06:57:28;;;;;;;4.50;1.27;;;;;;;19.45;57.70;98828.28;4986850;28;20283;-63
2023/10/21 06:59:53;;;;;;;2.88;1.10;;;;;;;19.48;57.82;98835.03;4986777;28;20033;-62
2023/10/21 07:02:19;;;;;;;4.10;1.33;;;;;;;19.50;57.97;98843.59;4986815;28;20419;-64
2023/10/21 07:04:44;;;;;;;3.33;0.88;;;;;;;19.46;57.75;98843.16;4986924;28;20272;-63
2023/10/21 07:07:10;;;;;;;3.97;1.08;;;;;;;19.45;57.95;98849.41;4986501;28;20049;-63
2023/10/21 07:09:37;;;;;;;3.33;1.20;;;;;;;19.46;58.27;98864.28;4985941;28;20038;-63
2023/10/21 07:12:03;;;;;;;6.35;0.93;;;;;;;19.45;58.29;98857.34;4985704;28;20495;-62
2023/10/21 07:14:29;;;;;;;3.75;1.05;;;;;;;19.46;58.45;98869.56;4986642;28;20034;-63
2023/10/21 07:16:55;;;;;;;2.50;0.90;;;;;;;19.46;58.29;98874.84;4986409;28;20031;-64
2023/10/21 07:19:20;;;;;;;3.75;1.27;;;;;;;19.48;58.37;98882.59;4986046;28;20034;-61
2023/10/21 07:21:45;;;;;;;3.90;0.93;;;;;;;19.49;58.40;98895.63;4986404;28;20045;-62
2023/10/21 07:24:12;;;;;;;2.23;0.90;;;;;;;19.49;58.27;98889.53;4986525;28;20061;-59
2023/10/21 07:26:37;;;;;;;1.98;0.90;;;;;;;19.50;58.61;98926.34;4986017;28;20370;-63
2023/10/21 07:29:03;;;;;;;2.37;0.83;;;;;;;19.49;58.55;98927.31;4986152;28;20122;-63
2023/10/21 07:31:28;;;;;;;6.28;1.10;;;;;;;19.50;58.32;98938.69;4986608;28;20275;-62
2023/10/21 07:33:53;;;;;;;2.53;0.80;;;;;;;19.51;58.46;98945.63;4985902;28;20034;-61
2023/10/21 07:36:19;;;;;;;2.43;0.80;;;;;;;19.50;58.64;98951.91;4986481;28;20026;-61
2023/10/21 07:38:44;;;;;;;2.08;0.80;;;;;;;19.53;58.66;98970.84;4986228;28;20282;-60
2023/10/21 07:41:11;;;;;;;4.18;1.10;;;;;;;19.54;58.50;98972.50;4985715;28;20129;-63
2023/10/21 07:43:36;;;;;;;3.55;1.00;;;;;;;19.53;58.55;98967.41;4986110;28;20066;-61
2023/10/21 07:46:03;;;;;;;2.72;0.90;;;;;;;19.54;58.44;98982.28;4986936;28;20068;-63
2023/10/21 07:48:28;;;;;;;2.55;0.80;;;;;;;19.53;58.59;98989.34;4989374;28;20038;-62
2023/10/21 07:50:54;;;;;;;2.05;0.70;;;;;;;19.52;58.34;98993.00;4989949;28;20045;-62
2023/10/21 07:53:20;;;;;;;3.30;0.80;;;;;;;19.54;58.44;98995.47;4988590;28;20041;-62
2023/10/21 07:55:48;;;;;;;2.10;0.80;;;;;;;19.54;58.55;98998.13;4989650;28;20034;-63
2023/10/21 07:58:13;;;;;;;4.63;0.93;;;;;;;19.52;58.64;99010.69;4989384;28;20034;-61
2023/10/21 08:00:39;;;;;;;2.78;0.88;;;;;;;19.49;58.67;99019.78;4989524;28;20034;-61
2023/10/21 08:03:05;;;;;;;4.47;0.98;;;;;;;19.51;58.49;99020.41;4989333;28;20447;-63
2023/10/21 08:05:30;;;;;;;2.83;0.90;;;;;;;19.53;58.43;99026.34;4988334;28;20038;-62
2023/10/21 08:07:55;;;;;;;3.25;0.82;;;;;;;19.54;58.32;99022.72;4988162;28;20406;-64
2023/10/21 08:10:22;;;;;;;4.15;0.90;;;;;;;19.56;58.45;99039.19;4988956;28;20074;-64
2023/10/21 08:12:47;;;;;;;5.22;0.85;;;;;;;19.56;58.42;99038.38;4989297;28;20120;-63
2023/10/21 08:15:12;;;;;;;2.60;0.80;;;;;;;19.55;58.61;99037.56;4988167;28;20117;-63
2023/10/21 08:17:38;;;;;;;2.05;0.80;;;;;;;19.57;58.61;99047.97;4989282;28;20399;-61
2023/10/21 08:20:04;;;;;;;2.08;0.70;;;;;;;19.54;58.43;99033.28;4988722;28;20480;-62
2023/10/21 08:22:30;;;;;;;2.22;0.90;;;;;;;19.56;58.45;99047.13;4989137;28;20456;-62
2023/10/21 08:24:56;;;;;;;1.92;0.70;;;;;;;19.53;58.63;99044.84;4988997;28;20038;-61
2023/10/21 08:27:21;;;;;;;3.10;0.88;;;;;;;19.56;58.59;99048.97;4989397;28;20050;-64
2023/10/21 08:29:48;;;;;;;4.72;0.77;;;;;;;19.57;58.48;99059.34;4987649;28;20034;-63
2023/10/21 08:32:13;;;;;;;3.42;0.70;;;;;;;19.56;58.73;99051.59;4988796;28;20840;-60
2023/10/21 08:34:39;;;;;;;1.95;0.63;;;;;;;19.53;58.64;99055.41;4991500;28;20035;-61
2023/10/21 08:37:05;;;;;;;3.33;0.90;;;;;;;19.55;58.55;99063.16;4988636;28;20034;-64
2023/10/21 08:39:30;;;;;;;1.35;0.60;;;;;;;19.56;58.95;99065.63;4989318;28;20039;-60
2023/10/21 08:41:56;;;;;;;2.80;0.60;;;;;;;19.57;58.47;99062.00;4988883;28;20030;-62
2023/10/21 08:44:22;;;;;;;1.40;0.60;;;;;;;19.58;58.55;99078.66;4989362;28;20121;-63
2023/10/21 08:46:49;;;;;;;4.80;0.93;;;;;;;19.58;58.39;99068.94;4988919;28;20027;-62
2023/10/21 08:49:17;;;;;;;2.20;0.60;;;;;;;19.60;58.53;99089.91;4989160;28;20026;-63
2023/10/21 08:51:45;;;;;;;1.45;0.70;;;;;;;19.60;58.17;99087.25;4988246;28;20109;-63
2023/10/21 08:54:12;;;;;;;2.47;0.75;;;;;;;19.60;58.22;99091.69;4989047;28;20413;-63
2023/10/21 08:56:37;;;;;;;2.65;0.68;;;;;;;19.61;58.20;99093.34;4987597;28;20391;-63
2023/10/21 08:59:03;;;;;;;1.42;0.70;;;;;;;19.61;58.16;99083.59;4988311;28;20034;-61
2023/10/21 09:01:29;;;;;;;2.17;0.70;;;;;;;19.56;58.38;99094.69;4988655;28;20130;-63
2023/10/21 09:03:55;;;;;;;3.33;0.70;;;;;;;19.58;58.12;99103.28;4988771;28;20030;-64
2023/10/21 09:06:21;;;;;;;2.58;0.80;;;;;;;19.58;58.17;99094.50;4988190;28;20038;-60
2023/10/21 09:08:47;;;;;;;2.42;0.70;;;;;;;19.59;58.38;99101.44;4988283;28;20038;-63
2023/10/21 09:11:15;;;;;;;3.53;0.60;;;;;;;19.60;58.03;99112.84;4987584;28;20030;-61
2023/10/21 09:13:42;;;;;;;2.50;0.90;;;;;;;19.61;57.93;99123.22;4988292;28;20168;-63
2023/10/21 09:16:31;;;;;;;2.88;0.60;;;;;;;19.60;58.00;99124.25;4988184;28;20030;-62
2023/10/21 09:19:06;;;;;;;3.35;0.82;;;;;;;19.62;58.16;99126.72;4988243;28;20116;-60
2023/10/21 09:21:42;;;;;;;1.88;0.68;;;;;;;19.61;58.00;99130.34;4988285;28;20070;-62
2023/10/21 09:24:10;;;;;;;2.92;0.70;;;;;;;19.63;57.91;99138.91;4988596;28;20121;-63
2023/10/21 09:26:45;;;;;;;1.85;0.70;;;;;;;19.61;57.94;99125.06;4988056;28;20148;-61
2023/10/21 09:29:12;;;;;;;2.80;0.70;;;;;;;19.60;57.92;99142.75;4987863;28;20168;-62
2023/10/21 09:31:54;;;;;;;2.20;0.60;;;;;;;19.58;57.96;99140.28;4988156;28;20066;-63
2023/10/21 09:34:30;;;;;;;1.23;0.45;;;;;;;19.60;57.94;99139.25;4988047;28;20038;-63
2023/10/21 09:36:59;;;;;;;1.63;0.70;;;;;;;19.62;57.89;99147.84;4988219;28;20387;-61
2023/10/21 09:39:27;;;;;;;1.73;0.68;;;;;;;19.61;57.80;99146.19;4988188;28;20077;-62
2023/10/21 09:41:52;;;;;;;1.33;0.60;;;;;;;19.60;57.90;99149.81;4987854;28;20463;-61
2023/10/21 09:44:19;;;;;;;3.85;0.70;;;;;;;19.61;57.93;99148.84;4987015;28;20058;-63
2023/10/21 09:46:45;;;;;;;1.38;0.60;;;;;;;19.60;57.56;99158.59;4987647;28;20040;-61
2023/10/21 09:49:15;;;;;;;1.55;0.55;;;;;;;19.61;58.00;99162.06;4987292;28;20372;-62
2023/10/21 09:51:52;;;;;;;2.15;0.65;;;;;;;19.58;57.78;99161.41;4987248;28;20081;-63
2023/10/21 09:54:26;;;;;;;1.92;0.70;;;;;;;19.60;57.94;99165.69;4986545;28;20038;-64
2023/10/21 09:56:52;;;;;;;;;;;;;;;19.63;57.64;99160.06;4987925;28;20471;-65
2023/10/21 09:59:19;;;;;;;0.98;0.50;;;;;;;19.62;57.73;99175.09;4987627;28;19964;-64
2023/10/21 10:01:45;;;;;;;2.83;0.60;;;;;;;19.58;57.82;99169.34;4986749;28;20034;-61
2023/10/21 10:04:11;;;;;;;3.10;0.70;;;;;;;19.55;58.04;99167.03;4987325;28;20041;-60
2023/10/21 10:06:38;;;;;;;2.00;0.60;;;;;;;19.55;57.71;99172.34;4988023;28;20041;-67
2023/10/21 10:09:06;;;;;;;1.92;0.70;;;;;;;19.54;57.64;99175.97;4987197;28;20046;-64
2023/10/21 10:11:33;;;;;;;6.07;1.05;;;;;;;19.47;57.96;99184.75;4989371;28;20117;-63
2023/10/21 10:14:02;;;;;;;1.65;0.50;;;;;;;19.37;58.41;99183.13;4986981;28;20061;-63
2023/10/21 10:16:28;;;;;;;3.13;0.55;;;;;;;19.30;58.59;99184.84;4987008;28;20031;-63
2023/10/21 10:18:56;;;;;;;2.03;0.70;;;;;;;19.27;58.40;99182.53;4986840;28;20073;-64
2023/10/21 10:21:21;;;;;;;2.63;0.80;;;;;;;19.27;58.57;99187.81;4985236;28;20109;-61
2023/10/21 10:23:49;;;;;;;1.92;0.60;;;;;;;19.26;58.81;99183.53;4986465;28;20042;-62
2023/10/21 10:26:16;;;;;;;4.25;0.63;;;;;;;19.28;58.88;99184.19;4986112;28;20066;-62
2023/10/21 10:28:42;;;;;;;5.15;0.75;;;;;;;19.27;58.79;99182.53;4986718;28;20171;-64
2023/10/21 10:31:22;;;;;;;3.20;0.80;;;;;;;19.28;58.79;99180.72;4985826;28;20121;-63
2023/10/21 10:33:51;;;;;;;3.13;0.75;;;;;;;19.29;58.61;99185.81;4986400;28;20362;-63
2023/10/21 10:36:27;;;;;;;2.65;0.70;;;;;;;19.30;58.69;99189.31;4986736;28;20510;-63
2023/10/21 10:38:54;;;;;;;2.28;0.52;;;;;;;19.33;58.36;99187.13;4986732;28;20113;-61
2023/10/21 10:41:20;;;;;;;3.53;0.60;;;;;;;19.31;58.15;99191.78;4986807;28;20033;-62
2023/10/21 10:43:54;;;;;;;4.20;0.80;;;;;;;19.32;58.42;99193.41;4986156;28;20038;-64
2023/10/21 10:46:21;;;;;;;5.38;0.80;;;;;;;19.34;58.20;99191.44;4986119;28;20038;-64
2023/10/21 10:48:47;;;;;;;2.97;0.68;;;;;;;19.38;57.91;99199.84;4986376;28;20073;-65
2023/10/21 10:51:15;;;;;;;3.17;0.75;;;;;;;19.38;58.09;99205.13;4984909;28;20506;-65
2023/10/21 10:53:46;;;;;;;2.28;0.70;;;;;;;19.37;58.25;99200.81;4986533;28;20023;-63
2023/10/21 10:56:18;;;;;;;2.95;1.35;;;;;;;19.42;58.05;99208.22;4986526;28;20022;-63
2023/10/21 10:58:46;;;;;;;4.55;0.85;;;;;;;19.43;58.02;99209.88;4985696;28;20673;-70
2023/10/21 11:01:25;;;;;;;3.40;0.80;;;;;;;19.44;57.90;99211.50;4986109;28;20036;-66
2023/10/21 11:03:58;;;;;;;8.55;1.30;;;;;;;19.40;57.95;99211.84;4985490;28;20395;-65
2023/10/21 11:06:28;;;;;;;7.32;0.85;;;;;;;19.45;57.98;99221.91;4985655;28;20030;-64
2023/10/21 11:08:54;;;;;;;7.57;0.88;;;;;;;19.45;58.00;99229.84;4986123;28;20038;-64
2023/10/21 11:11:19;;;;;;;2.40;0.80;;;;;;;19.42;58.02;99224.88;4986119;28;20042;-63
2023/10/21 11:13:46;;;;;;;4.38;0.98;;;;;;;19.40;58.09;99233.00;4986433;28;20034;-63
2023/10/21 11:16:11;;;;;;;6.10;1.00;;;;;;;19.41;58.22;99225.91;4986129;28;20479;-63
2023/10/21 11:18:37;;;;;;;4.40;0.77;;;;;;;19.40;57.96;99230.34;4985899;28;20036;-65
2023/10/21 11:21:04;;;;;;;5.35;0.90;;;;;;;19.43;58.08;99236.31;4988870;28;20041;-64
2023/10/21 11:23:30;;;;;;;3.10;0.68;;;;;;;19.39;58.11;99236.66;4989195;28;20034;-63
2023/10/21 11:25:58;;;;;;;3.45;0.93;;;;;;;19.39;58.19;99231.38;4989121;28;20056;-66
2023/10/21 11:28:27;;;;;;;3.33;0.80;;;;;;;19.39;58.00;99228.72;4988776;28;20089;-65
2023/10/21 11:30:53;;;;;;;4.22;1.05;;;;;;;19.41;57.92;99231.19;4989188;28;20038;-64